sensor_id;sensor_type;location;lat;lon;timestamp;temperature;humidity
15178;DHT22;7689;53.612;-2.416;2022-11-12T00:00:40;13.50;99.90
15178;DHT22;7689;53.612;-2.416;2022-11-12T00:03:06;13.50;99.90
15178;DHT22;7689;53.612;-2.416;2022-11-12T00:05:32;13.50;99.90
15178;DHT22;7689;53.612;-2.416;2022-11-12T00:07:59;13.50;99.90
15178;DHT22;7689;53.612;-2.416;2022-11-12T00:10:25;13.40;99.90
15178;DHT22;7689;53.612;-2.416;2022-11-12T00:12:51;13.40;99.90
15178;DHT22;7689;53.612;-2.416;2022-11-12T00:15:16;13.40;99.90
15178;DHT22;7689;53.612;-2.416;2022-11-12T00:17:42;13.40;99.90
15178;DHT22;7689;53.612;-2.416;2022-11-12T00:20:08;13.30;99.90
15178;DHT22;7689;53.612;-2.416;2022-11-12T00:22:34;13.30;99.90
15178;DHT22;7689;53.612;-2.416;2022-11-12T00:25:00;13.20;99.90
15178;DHT22;7689;53.612;-2.416;2022-11-12T00:27:26;13.10;99.90
15178;DHT22;7689;53.612;-2.416;2022-11-12T00:29:51;13.10;99.90
15178;DHT22;7689;53.612;-2.416;2022-11-12T00:32:17;13.10;99.90
15178;DHT22;7689;53.612;-2.416;2022-11-12T00:34:44;13.00;99.90
15178;DHT22;7689;53.612;-2.416;2022-11-12T00:37:09;13.00;99.90
15178;DHT22;7689;53.612;-2.416;2022-11-12T00:39:35;13.00;99.90
15178;DHT22;7689;53.612;-2.416;2022-11-12T00:42:01;13.00;99.90
15178;DHT22;7689;53.612;-2.416;2022-11-12T00:44:27;13.00;99.90
15178;DHT22;7689;53.612;-2.416;2022-11-12T00:46:54;13.00;99.90
15178;DHT22;7689;53.612;-2.416;2022-11-12T00:49:20;13.00;99.90
15178;DHT22;7689;53.612;-2.416;2022-11-12T00:51:46;13.10;99.90
15178;DHT22;7689;53.612;-2.416;2022-11-12T00:54:11;13.10;99.90
15178;DHT22;7689;53.612;-2.416;2022-11-12T00:56:37;13.00;99.90
15178;DHT22;7689;53.612;-2.416;2022-11-12T00:59:03;13.00;99.90
15178;DHT22;7689;53.612;-2.416;2022-11-12T01:01:28;13.00;99.90
15178;DHT22;7689;53.612;-2.416;2022-11-12T01:03:56;13.00;99.90
15178;DHT22;7689;53.612;-2.416;2022-11-12T01:06:23;13.00;99.90
15178;DHT22;7689;53.612;-2.416;2022-11-12T01:08:49;12.90;99.90
15178;DHT22;7689;53.612;-2.416;2022-11-12T01:11:23;12.80;99.90
15178;DHT22;7689;53.612;-2.416;2022-11-12T01:14:06;12.70;99.90
15178;DHT22;7689;53.612;-2.416;2022-11-12T01:16:38;12.70;99.90
15178;DHT22;7689;53.612;-2.416;2022-11-12T01:19:08;12.60;99.90
15178;DHT22;7689;53.612;-2.416;2022-11-12T01:21:38;12.60;99.90
15178;DHT22;7689;53.612;-2.416;2022-11-12T01:24:06;12.50;99.90
15178;DHT22;7689;53.612;-2.416;2022-11-12T01:26:31;12.50;99.90
15178;DHT22;7689;53.612;-2.416;2022-11-12T01:28:57;12.50;99.90
15178;DHT22;7689;53.612;-2.416;2022-11-12T01:31:28;12.50;99.90
15178;DHT22;7689;53.612;-2.416;2022-11-12T01:33:57;12.50;99.90
15178;DHT22;7689;53.612;-2.416;2022-11-12T01:36:24;12.50;99.90
15178;DHT22;7689;53.612;-2.416;2022-11-12T01:38:51;12.50;99.90
15178;DHT22;7689;53.612;-2.416;2022-11-12T01:41:23;12.50;99.90
15178;DHT22;7689;53.612;-2.416;2022-11-12T01:46:35;12.50;99.90
15178;DHT22;7689;53.612;-2.416;2022-11-12T01:49:04;12.50;99.90
15178;DHT22;7689;53.612;-2.416;2022-11-12T01:51:35;12.40;99.90
15178;DHT22;7689;53.612;-2.416;2022-11-12T01:54:05;12.40;99.90
15178;DHT22;7689;53.612;-2.416;2022-11-12T01:56:32;12.40;99.90
15178;DHT22;7689;53.612;-2.416;2022-11-12T01:59:05;12.30;99.90
15178;DHT22;7689;53.612;-2.416;2022-11-12T02:01:33;12.40;99.90
15178;DHT22;7689;53.612;-2.416;2022-11-12T02:04:00;12.30;99.90
15178;DHT22;7689;53.612;-2.416;2022-11-12T02:06:26;12.40;99.90
15178;DHT22;7689;53.612;-2.416;2022-11-12T02:08:52;12.30;99.90
15178;DHT22;7689;53.612;-2.416;2022-11-12T02:11:20;12.30;99.90
15178;DHT22;7689;53.612;-2.416;2022-11-12T02:13:47;12.30;99.90
15178;DHT22;7689;53.612;-2.416;2022-11-12T02:16:29;12.30;99.90
15178;DHT22;7689;53.612;-2.416;2022-11-12T02:18:55;12.40;99.90
15178;DHT22;7689;53.612;-2.416;2022-11-12T02:21:22;12.40;99.90
15178;DHT22;7689;53.612;-2.416;2022-11-12T02:24:41;12.30;99.90
15178;DHT22;7689;53.612;-2.416;2022-11-12T02:26:48;12.30;99.90
15178;DHT22;7689;53.612;-2.416;2022-11-12T02:29:16;12.30;99.90
15178;DHT22;7689;53.612;-2.416;2022-11-12T02:31:41;12.20;99.90
15178;DHT22;7689;53.612;-2.416;2022-11-12T02:34:07;12.20;99.90
15178;DHT22;7689;53.612;-2.416;2022-11-12T02:36:33;12.30;99.90
15178;DHT22;7689;53.612;-2.416;2022-11-12T02:38:58;12.30;99.90
15178;DHT22;7689;53.612;-2.416;2022-11-12T02:41:24;12.20;99.90
15178;DHT22;7689;53.612;-2.416;2022-11-12T02:43:50;12.20;99.90
15178;DHT22;7689;53.612;-2.416;2022-11-12T02:46:15;12.20;99.90
15178;DHT22;7689;53.612;-2.416;2022-11-12T02:48:41;12.30;99.90
15178;DHT22;7689;53.612;-2.416;2022-11-12T02:51:07;12.20;99.90
15178;DHT22;7689;53.612;-2.416;2022-11-12T02:53:33;12.20;99.90
15178;DHT22;7689;53.612;-2.416;2022-11-12T02:55:59;12.20;99.90
15178;DHT22;7689;53.612;-2.416;2022-11-12T02:58:26;12.20;99.90
15178;DHT22;7689;53.612;-2.416;2022-11-12T03:00:52;12.20;99.90
15178;DHT22;7689;53.612;-2.416;2022-11-12T03:03:17;12.20;99.90
15178;DHT22;7689;53.612;-2.416;2022-11-12T03:05:45;12.20;99.90
15178;DHT22;7689;53.612;-2.416;2022-11-12T03:08:10;12.20;99.90
15178;DHT22;7689;53.612;-2.416;2022-11-12T03:10:38;12.10;99.90
15178;DHT22;7689;53.612;-2.416;2022-11-12T03:13:04;12.20;99.90
15178;DHT22;7689;53.612;-2.416;2022-11-12T03:15:30;12.10;99.90
15178;DHT22;7689;53.612;-2.416;2022-11-12T03:17:57;12.20;99.90
15178;DHT22;7689;53.612;-2.416;2022-11-12T03:20:23;12.10;99.90
15178;DHT22;7689;53.612;-2.416;2022-11-12T03:23:01;12.20;99.90
15178;DHT22;7689;53.612;-2.416;2022-11-12T03:25:27;12.20;99.90
15178;DHT22;7689;53.612;-2.416;2022-11-12T03:28:02;12.20;99.90
15178;DHT22;7689;53.612;-2.416;2022-11-12T03:30:30;12.10;99.90
15178;DHT22;7689;53.612;-2.416;2022-11-12T03:32:56;12.20;99.90
15178;DHT22;7689;53.612;-2.416;2022-11-12T03:35:22;12.20;99.90
15178;DHT22;7689;53.612;-2.416;2022-11-12T03:37:48;12.20;99.90
15178;DHT22;7689;53.612;-2.416;2022-11-12T03:40:15;12.10;99.90
15178;DHT22;7689;53.612;-2.416;2022-11-12T03:42:48;12.20;99.90
15178;DHT22;7689;53.612;-2.416;2022-11-12T03:45:15;12.20;99.90
15178;DHT22;7689;53.612;-2.416;2022-11-12T03:47:42;12.10;99.90
15178;DHT22;7689;53.612;-2.416;2022-11-12T03:50:09;12.10;99.90
15178;DHT22;7689;53.612;-2.416;2022-11-12T03:52:36;12.10;99.90
15178;DHT22;7689;53.612;-2.416;2022-11-12T03:55:03;12.10;99.90
15178;DHT22;7689;53.612;-2.416;2022-11-12T03:57:29;12.10;99.90
15178;DHT22;7689;53.612;-2.416;2022-11-12T03:59:55;12.10;99.90
15178;DHT22;7689;53.612;-2.416;2022-11-12T04:02:20;12.10;99.90
15178;DHT22;7689;53.612;-2.416;2022-11-12T04:04:46;12.10;99.90
15178;DHT22;7689;53.612;-2.416;2022-11-12T04:07:30;12.10;99.90
15178;DHT22;7689;53.612;-2.416;2022-11-12T04:10:14;12.10;99.90
15178;DHT22;7689;53.612;-2.416;2022-11-12T04:12:40;12.00;99.90
15178;DHT22;7689;53.612;-2.416;2022-11-12T04:15:24;12.00;99.90
15178;DHT22;7689;53.612;-2.416;2022-11-12T04:17:49;12.00;99.90
15178;DHT22;7689;53.612;-2.416;2022-11-12T04:20:33;12.00;99.90
15178;DHT22;7689;53.612;-2.416;2022-11-12T04:23:31;11.90;99.90
15178;DHT22;7689;53.612;-2.416;2022-11-12T04:25:57;12.00;99.90
15178;DHT22;7689;53.612;-2.416;2022-11-12T04:28:41;12.00;99.90
15178;DHT22;7689;53.612;-2.416;2022-11-12T04:31:29;12.00;99.90
15178;DHT22;7689;53.612;-2.416;2022-11-12T04:33:55;12.10;99.90
15178;DHT22;7689;53.612;-2.416;2022-11-12T04:36:40;12.00;99.90
15178;DHT22;7689;53.612;-2.416;2022-11-12T04:39:06;12.00;99.90
15178;DHT22;7689;53.612;-2.416;2022-11-12T04:41:32;12.00;99.90
15178;DHT22;7689;53.612;-2.416;2022-11-12T04:44:16;12.00;99.90
15178;DHT22;7689;53.612;-2.416;2022-11-12T04:47:00;11.90;99.90
15178;DHT22;7689;53.612;-2.416;2022-11-12T04:49:25;11.90;99.90
15178;DHT22;7689;53.612;-2.416;2022-11-12T04:51:51;11.80;99.90
15178;DHT22;7689;53.612;-2.416;2022-11-12T04:54:32;11.90;99.90
15178;DHT22;7689;53.612;-2.416;2022-11-12T04:56:59;11.80;99.90
15178;DHT22;7689;53.612;-2.416;2022-11-12T04:59:24;11.80;99.90
15178;DHT22;7689;53.612;-2.416;2022-11-12T05:01:51;11.90;99.90
15178;DHT22;7689;53.612;-2.416;2022-11-12T05:04:16;11.90;99.90
15178;DHT22;7689;53.612;-2.416;2022-11-12T05:06:42;11.90;99.90
15178;DHT22;7689;53.612;-2.416;2022-11-12T05:09:18;11.90;99.90
15178;DHT22;7689;53.612;-2.416;2022-11-12T05:11:44;11.80;99.90
15178;DHT22;7689;53.612;-2.416;2022-11-12T05:14:10;11.80;99.90
15178;DHT22;7689;53.612;-2.416;2022-11-12T05:16:35;11.70;99.90
15178;DHT22;7689;53.612;-2.416;2022-11-12T05:19:02;11.70;99.90
15178;DHT22;7689;53.612;-2.416;2022-11-12T05:21:28;11.70;99.90
15178;DHT22;7689;53.612;-2.416;2022-11-12T05:24:12;11.60;99.90
15178;DHT22;7689;53.612;-2.416;2022-11-12T05:26:38;11.50;99.90
15178;DHT22;7689;53.612;-2.416;2022-11-12T05:29:05;11.50;99.90
15178;DHT22;7689;53.612;-2.416;2022-11-12T05:31:31;11.60;99.90
15178;DHT22;7689;53.612;-2.416;2022-11-12T05:33:56;11.40;99.90
15178;DHT22;7689;53.612;-2.416;2022-11-12T05:36:22;11.40;99.90
15178;DHT22;7689;53.612;-2.416;2022-11-12T05:38:48;11.50;99.90
15178;DHT22;7689;53.612;-2.416;2022-11-12T05:41:13;11.40;99.90
15178;DHT22;7689;53.612;-2.416;2022-11-12T05:43:39;11.40;99.90
15178;DHT22;7689;53.612;-2.416;2022-11-12T05:46:05;11.40;99.90
15178;DHT22;7689;53.612;-2.416;2022-11-12T05:48:31;11.40;99.90
15178;DHT22;7689;53.612;-2.416;2022-11-12T05:50:56;11.40;99.90
15178;DHT22;7689;53.612;-2.416;2022-11-12T05:53:22;12.70;99.90
15178;DHT22;7689;53.612;-2.416;2022-11-12T05:55:48;11.20;99.90
15178;DHT22;7689;53.612;-2.416;2022-11-12T05:58:13;11.10;99.90
15178;DHT22;7689;53.612;-2.416;2022-11-12T06:00:39;11.10;99.90
15178;DHT22;7689;53.612;-2.416;2022-11-12T06:03:09;11.10;99.90
15178;DHT22;7689;53.612;-2.416;2022-11-12T06:05:35;11.10;99.90
15178;DHT22;7689;53.612;-2.416;2022-11-12T06:08:01;11.10;99.90
15178;DHT22;7689;53.612;-2.416;2022-11-12T06:10:28;11.20;99.90
15178;DHT22;7689;53.612;-2.416;2022-11-12T06:12:54;11.10;99.90
15178;DHT22;7689;53.612;-2.416;2022-11-12T06:15:20;11.00;99.90
15178;DHT22;7689;53.612;-2.416;2022-11-12T06:17:46;11.00;99.90
15178;DHT22;7689;53.612;-2.416;2022-11-12T06:20:12;11.00;99.90
15178;DHT22;7689;53.612;-2.416;2022-11-12T06:22:38;10.90;99.90
15178;DHT22;7689;53.612;-2.416;2022-11-12T06:25:04;10.80;99.90
15178;DHT22;7689;53.612;-2.416;2022-11-12T06:27:30;10.70;99.90
15178;DHT22;7689;53.612;-2.416;2022-11-12T06:29:56;10.70;99.90
15178;DHT22;7689;53.612;-2.416;2022-11-12T06:32:22;10.80;99.90
15178;DHT22;7689;53.612;-2.416;2022-11-12T06:34:48;10.80;99.90
15178;DHT22;7689;53.612;-2.416;2022-11-12T06:37:14;10.80;99.90
15178;DHT22;7689;53.612;-2.416;2022-11-12T06:39:40;10.90;99.90
15178;DHT22;7689;53.612;-2.416;2022-11-12T06:42:07;10.90;99.90
15178;DHT22;7689;53.612;-2.416;2022-11-12T06:44:32;10.80;99.90
15178;DHT22;7689;53.612;-2.416;2022-11-12T06:46:58;10.80;99.90
15178;DHT22;7689;53.612;-2.416;2022-11-12T06:49:23;10.70;99.90
15178;DHT22;7689;53.612;-2.416;2022-11-12T06:51:50;10.60;99.90
15178;DHT22;7689;53.612;-2.416;2022-11-12T06:54:16;10.60;99.90
15178;DHT22;7689;53.612;-2.416;2022-11-12T06:56:41;10.50;99.90
15178;DHT22;7689;53.612;-2.416;2022-11-12T06:59:07;10.50;99.90
15178;DHT22;7689;53.612;-2.416;2022-11-12T07:01:32;10.50;99.90
15178;DHT22;7689;53.612;-2.416;2022-11-12T07:03:58;10.50;99.90
15178;DHT22;7689;53.612;-2.416;2022-11-12T07:06:24;10.40;99.90
15178;DHT22;7689;53.612;-2.416;2022-11-12T07:08:50;10.30;99.90
15178;DHT22;7689;53.612;-2.416;2022-11-12T07:11:19;10.20;99.90
15178;DHT22;7689;53.612;-2.416;2022-11-12T07:13:45;10.20;99.90
15178;DHT22;7689;53.612;-2.416;2022-11-12T07:16:12;10.30;99.90
15178;DHT22;7689;53.612;-2.416;2022-11-12T07:18:45;10.30;99.90
15178;DHT22;7689;53.612;-2.416;2022-11-12T07:21:15;10.30;99.90
15178;DHT22;7689;53.612;-2.416;2022-11-12T07:23:41;10.10;99.90
15178;DHT22;7689;53.612;-2.416;2022-11-12T07:26:15;10.00;99.90
15178;DHT22;7689;53.612;-2.416;2022-11-12T07:28:41;10.00;99.90
15178;DHT22;7689;53.612;-2.416;2022-11-12T07:31:09;9.90;99.90
15178;DHT22;7689;53.612;-2.416;2022-11-12T07:33:35;9.90;99.90
15178;DHT22;7689;53.612;-2.416;2022-11-12T07:38:29;9.90;99.90
15178;DHT22;7689;53.612;-2.416;2022-11-12T07:43:34;9.80;99.90
15178;DHT22;7689;53.612;-2.416;2022-11-12T07:46:03;9.80;99.90
15178;DHT22;7689;53.612;-2.416;2022-11-12T07:48:29;9.70;99.90
15178;DHT22;7689;53.612;-2.416;2022-11-12T07:51:00;9.70;99.90
15178;DHT22;7689;53.612;-2.416;2022-11-12T07:53:26;9.80;99.90
15178;DHT22;7689;53.612;-2.416;2022-11-12T07:55:56;9.80;99.90
15178;DHT22;7689;53.612;-2.416;2022-11-12T07:58:22;9.30;99.90
15178;DHT22;7689;53.612;-2.416;2022-11-12T08:00:49;9.90;99.90
15178;DHT22;7689;53.612;-2.416;2022-11-12T08:03:15;9.90;99.90
15178;DHT22;7689;53.612;-2.416;2022-11-12T08:05:40;9.90;99.90
15178;DHT22;7689;53.612;-2.416;2022-11-12T08:08:06;9.80;99.90
15178;DHT22;7689;53.612;-2.416;2022-11-12T08:10:32;9.90;99.90
15178;DHT22;7689;53.612;-2.416;2022-11-12T08:12:57;9.90;99.90
15178;DHT22;7689;53.612;-2.416;2022-11-12T08:15:23;10.00;99.90
15178;DHT22;7689;53.612;-2.416;2022-11-12T08:17:49;10.10;99.90
15178;DHT22;7689;53.612;-2.416;2022-11-12T08:20:14;10.10;99.90
15178;DHT22;7689;53.612;-2.416;2022-11-12T08:22:40;10.20;99.90
15178;DHT22;7689;53.612;-2.416;2022-11-12T08:25:06;10.20;99.90
15178;DHT22;7689;53.612;-2.416;2022-11-12T08:27:32;10.30;99.90
15178;DHT22;7689;53.612;-2.416;2022-11-12T08:29:58;10.30;99.90
15178;DHT22;7689;53.612;-2.416;2022-11-12T08:32:24;10.30;99.90
15178;DHT22;7689;53.612;-2.416;2022-11-12T08:34:50;10.30;99.90
15178;DHT22;7689;53.612;-2.416;2022-11-12T08:37:15;10.20;99.90
15178;DHT22;7689;53.612;-2.416;2022-11-12T08:39:41;10.20;99.90
15178;DHT22;7689;53.612;-2.416;2022-11-12T08:42:07;10.20;99.90
15178;DHT22;7689;53.612;-2.416;2022-11-12T08:44:34;10.20;99.90
15178;DHT22;7689;53.612;-2.416;2022-11-12T08:47:00;10.20;99.90
15178;DHT22;7689;53.612;-2.416;2022-11-12T08:49:26;10.20;99.90
15178;DHT22;7689;53.612;-2.416;2022-11-12T08:51:53;10.30;99.90
15178;DHT22;7689;53.612;-2.416;2022-11-12T08:54:19;10.40;99.90
15178;DHT22;7689;53.612;-2.416;2022-11-12T08:56:45;10.40;99.90
15178;DHT22;7689;53.612;-2.416;2022-11-12T08:59:11;10.40;99.90
15178;DHT22;7689;53.612;-2.416;2022-11-12T09:01:37;10.40;99.90
15178;DHT22;7689;53.612;-2.416;2022-11-12T09:04:02;10.20;99.90
15178;DHT22;7689;53.612;-2.416;2022-11-12T09:06:28;10.50;99.90
15178;DHT22;7689;53.612;-2.416;2022-11-12T09:08:53;10.60;99.90
15178;DHT22;7689;53.612;-2.416;2022-11-12T09:11:20;10.70;99.90
15178;DHT22;7689;53.612;-2.416;2022-11-12T09:13:46;10.70;99.90
15178;DHT22;7689;53.612;-2.416;2022-11-12T09:16:11;10.80;99.90
15178;DHT22;7689;53.612;-2.416;2022-11-12T09:18:37;10.80;99.90
15178;DHT22;7689;53.612;-2.416;2022-11-12T09:21:06;10.80;99.90
15178;DHT22;7689;53.612;-2.416;2022-11-12T09:23:35;10.90;99.90
15178;DHT22;7689;53.612;-2.416;2022-11-12T09:26:01;11.00;99.90
15178;DHT22;7689;53.612;-2.416;2022-11-12T09:28:27;11.10;99.90
15178;DHT22;7689;53.612;-2.416;2022-11-12T09:30:54;11.20;99.90
15178;DHT22;7689;53.612;-2.416;2022-11-12T09:33:22;11.20;99.90
15178;DHT22;7689;53.612;-2.416;2022-11-12T09:35:49;11.30;99.90
15178;DHT22;7689;53.612;-2.416;2022-11-12T09:38:16;11.30;99.90
15178;DHT22;7689;53.612;-2.416;2022-11-12T09:45:49;11.30;99.90
15178;DHT22;7689;53.612;-2.416;2022-11-12T09:48:46;11.20;99.90
15178;DHT22;7689;53.612;-2.416;2022-11-12T09:51:27;11.30;99.90
15178;DHT22;7689;53.612;-2.416;2022-11-12T09:54:00;11.30;99.90
15178;DHT22;7689;53.612;-2.416;2022-11-12T09:56:27;11.40;99.90
15178;DHT22;7689;53.612;-2.416;2022-11-12T09:58:54;11.40;99.90
15178;DHT22;7689;53.612;-2.416;2022-11-12T10:07:08;11.50;99.90
15178;DHT22;7689;53.612;-2.416;2022-11-12T10:12:57;11.50;99.90
15178;DHT22;7689;53.612;-2.416;2022-11-12T10:23:41;11.40;99.90
15178;DHT22;7689;53.612;-2.416;2022-11-12T10:26:16;11.40;99.90
15178;DHT22;7689;53.612;-2.416;2022-11-12T10:31:20;11.50;99.90
15178;DHT22;7689;53.612;-2.416;2022-11-12T10:33:46;11.50;99.90
15178;DHT22;7689;53.612;-2.416;2022-11-12T10:38:42;11.40;99.90
15178;DHT22;7689;53.612;-2.416;2022-11-12T10:41:25;11.50;99.90
15178;DHT22;7689;53.612;-2.416;2022-11-12T10:43:59;11.50;99.90
15178;DHT22;7689;53.612;-2.416;2022-11-12T10:46:36;11.50;99.90
15178;DHT22;7689;53.612;-2.416;2022-11-12T10:51:40;11.60;99.90
15178;DHT22;7689;53.612;-2.416;2022-11-12T10:56:43;11.90;99.90
15178;DHT22;7689;53.612;-2.416;2022-11-12T10:59:16;11.80;99.90
15178;DHT22;7689;53.612;-2.416;2022-11-12T11:01:52;11.90;99.90
15178;DHT22;7689;53.612;-2.416;2022-11-12T11:04:34;11.90;99.90
15178;DHT22;7689;53.612;-2.416;2022-11-12T11:09:31;11.80;99.90
15178;DHT22;7689;53.612;-2.416;2022-11-12T11:11:57;11.90;99.90
15178;DHT22;7689;53.612;-2.416;2022-11-12T11:14:29;11.90;99.90
15178;DHT22;7689;53.612;-2.416;2022-11-12T11:16:59;12.00;99.90
15178;DHT22;7689;53.612;-2.416;2022-11-12T11:19:41;12.10;99.90
15178;DHT22;7689;53.612;-2.416;2022-11-12T11:22:25;12.20;99.90
15178;DHT22;7689;53.612;-2.416;2022-11-12T11:27:49;12.20;99.90
15178;DHT22;7689;53.612;-2.416;2022-11-12T11:30:20;12.10;99.90
15178;DHT22;7689;53.612;-2.416;2022-11-12T11:33:22;12.10;99.90
15178;DHT22;7689;53.612;-2.416;2022-11-12T11:35:51;12.00;99.90
15178;DHT22;7689;53.612;-2.416;2022-11-12T12:03:18;13.00;99.90
15178;DHT22;7689;53.612;-2.416;2022-11-12T12:08:58;12.60;99.90
15178;DHT22;7689;53.612;-2.416;2022-11-12T12:11:55;12.60;99.90
15178;DHT22;7689;53.612;-2.416;2022-11-12T12:20:02;12.50;99.90
15178;DHT22;7689;53.612;-2.416;2022-11-12T12:22:39;12.40;99.90
15178;DHT22;7689;53.612;-2.416;2022-11-12T12:25:24;12.40;99.90
15178;DHT22;7689;53.612;-2.416;2022-11-12T12:28:06;12.40;99.90
15178;DHT22;7689;53.612;-2.416;2022-11-12T12:30:39;12.40;99.90
15178;DHT22;7689;53.612;-2.416;2022-11-12T12:33:28;12.50;99.90
15178;DHT22;7689;53.612;-2.416;2022-11-12T12:38:47;12.60;99.90
15178;DHT22;7689;53.612;-2.416;2022-11-12T12:43:56;12.50;99.90
15178;DHT22;7689;53.612;-2.416;2022-11-12T12:46:25;12.60;99.90
15178;DHT22;7689;53.612;-2.416;2022-11-12T12:48:53;12.60;99.90
15178;DHT22;7689;53.612;-2.416;2022-11-12T12:51:20;12.70;99.90
15178;DHT22;7689;53.612;-2.416;2022-11-12T12:53:46;12.60;99.90
15178;DHT22;7689;53.612;-2.416;2022-11-12T12:58:46;12.60;99.90
15178;DHT22;7689;53.612;-2.416;2022-11-12T13:48:27;12.30;99.90
15178;DHT22;7689;53.612;-2.416;2022-11-12T13:50:59;12.30;99.90
15178;DHT22;7689;53.612;-2.416;2022-11-12T13:53:28;12.20;99.90
15178;DHT22;7689;53.612;-2.416;2022-11-12T13:55:55;12.30;99.90
15178;DHT22;7689;53.612;-2.416;2022-11-12T13:58:31;12.30;99.90
15178;DHT22;7689;53.612;-2.416;2022-11-12T14:01:05;12.20;99.90
15178;DHT22;7689;53.612;-2.416;2022-11-12T14:03:43;12.30;99.90
15178;DHT22;7689;53.612;-2.416;2022-11-12T14:06:36;12.30;99.90
15178;DHT22;7689;53.612;-2.416;2022-11-12T14:17:22;12.20;99.90
15178;DHT22;7689;53.612;-2.416;2022-11-12T14:22:50;12.20;99.90
15178;DHT22;7689;53.612;-2.416;2022-11-12T14:25:26;12.20;99.90
15178;DHT22;7689;53.612;-2.416;2022-11-12T14:27:55;12.20;99.90
15178;DHT22;7689;53.612;-2.416;2022-11-12T14:32:58;12.30;99.90
15178;DHT22;7689;53.612;-2.416;2022-11-12T14:35:33;12.30;99.90
15178;DHT22;7689;53.612;-2.416;2022-11-12T14:40:42;12.40;99.90
15178;DHT22;7689;53.612;-2.416;2022-11-12T14:45:49;12.40;99.90
15178;DHT22;7689;53.612;-2.416;2022-11-12T14:48:16;12.40;99.90
15178;DHT22;7689;53.612;-2.416;2022-11-12T14:50:45;12.40;99.90
15178;DHT22;7689;53.612;-2.416;2022-11-12T14:55:52;12.40;99.90
15178;DHT22;7689;53.612;-2.416;2022-11-12T14:58:19;12.40;99.90
15178;DHT22;7689;53.612;-2.416;2022-11-12T15:00:48;12.40;99.90
15178;DHT22;7689;53.612;-2.416;2022-11-12T15:03:18;12.40;99.90
15178;DHT22;7689;53.612;-2.416;2022-11-12T15:05:57;12.40;99.90
15178;DHT22;7689;53.612;-2.416;2022-11-12T15:08:32;12.30;99.90
15178;DHT22;7689;53.612;-2.416;2022-11-12T15:11:27;12.20;99.90
15178;DHT22;7689;53.612;-2.416;2022-11-12T15:13:56;12.20;99.90
15178;DHT22;7689;53.612;-2.416;2022-11-12T15:16:28;12.30;99.90
15178;DHT22;7689;53.612;-2.416;2022-11-12T15:19:12;12.20;99.90
15178;DHT22;7689;53.612;-2.416;2022-11-12T15:21:51;12.20;99.90
15178;DHT22;7689;53.612;-2.416;2022-11-12T15:24:29;12.10;99.90
15178;DHT22;7689;53.612;-2.416;2022-11-12T15:26:58;12.10;99.90
15178;DHT22;7689;53.612;-2.416;2022-11-12T15:29:34;12.10;99.90
15178;DHT22;7689;53.612;-2.416;2022-11-12T15:32:48;12.10;99.90
15178;DHT22;7689;53.612;-2.416;2022-11-12T15:34:49;12.10;99.90
15178;DHT22;7689;53.612;-2.416;2022-11-12T15:39:53;12.10;99.90
15178;DHT22;7689;53.612;-2.416;2022-11-12T15:42:35;12.10;99.90
15178;DHT22;7689;53.612;-2.416;2022-11-12T15:45:22;12.10;99.90
15178;DHT22;7689;53.612;-2.416;2022-11-12T15:47:47;12.10;99.90
15178;DHT22;7689;53.612;-2.416;2022-11-12T15:50:14;12.10;99.90
15178;DHT22;7689;53.612;-2.416;2022-11-12T15:52:41;12.00;99.90
15178;DHT22;7689;53.612;-2.416;2022-11-12T15:55:07;12.00;99.90
15178;DHT22;7689;53.612;-2.416;2022-11-12T15:57:37;11.90;99.90
15178;DHT22;7689;53.612;-2.416;2022-11-12T16:00:12;11.90;99.90
15178;DHT22;7689;53.612;-2.416;2022-11-12T16:02:39;11.90;99.90
15178;DHT22;7689;53.612;-2.416;2022-11-12T16:05:15;12.00;99.90
15178;DHT22;7689;53.612;-2.416;2022-11-12T16:07:41;12.00;99.90
15178;DHT22;7689;53.612;-2.416;2022-11-12T16:10:11;12.00;99.90
15178;DHT22;7689;53.612;-2.416;2022-11-12T16:12:37;12.00;99.90
15178;DHT22;7689;53.612;-2.416;2022-11-12T16:15:02;11.90;99.90
15178;DHT22;7689;53.612;-2.416;2022-11-12T16:17:30;11.80;99.90
15178;DHT22;7689;53.612;-2.416;2022-11-12T16:19:55;11.80;99.90
15178;DHT22;7689;53.612;-2.416;2022-11-12T16:22:21;11.80;99.90
15178;DHT22;7689;53.612;-2.416;2022-11-12T16:24:47;11.70;99.90
15178;DHT22;7689;53.612;-2.416;2022-11-12T16:27:13;11.70;99.90
15178;DHT22;7689;53.612;-2.416;2022-11-12T16:29:40;11.70;99.90
15178;DHT22;7689;53.612;-2.416;2022-11-12T16:32:05;11.60;99.90
15178;DHT22;7689;53.612;-2.416;2022-11-12T16:34:31;11.60;99.90
15178;DHT22;7689;53.612;-2.416;2022-11-12T16:36:57;11.50;99.90
15178;DHT22;7689;53.612;-2.416;2022-11-12T16:39:23;11.50;99.90
15178;DHT22;7689;53.612;-2.416;2022-11-12T16:41:50;11.50;99.90
15178;DHT22;7689;53.612;-2.416;2022-11-12T16:44:15;11.50;99.90
15178;DHT22;7689;53.612;-2.416;2022-11-12T16:46:41;11.60;99.90
15178;DHT22;7689;53.612;-2.416;2022-11-12T16:49:14;11.60;99.90
15178;DHT22;7689;53.612;-2.416;2022-11-12T16:51:40;11.60;99.90
15178;DHT22;7689;53.612;-2.416;2022-11-12T16:54:07;11.60;99.90
15178;DHT22;7689;53.612;-2.416;2022-11-12T16:56:33;11.60;99.90
15178;DHT22;7689;53.612;-2.416;2022-11-12T16:59:00;11.70;99.90
15178;DHT22;7689;53.612;-2.416;2022-11-12T17:01:31;11.70;99.90
15178;DHT22;7689;53.612;-2.416;2022-11-12T17:03:57;11.90;99.90
15178;DHT22;7689;53.612;-2.416;2022-11-12T17:06:34;11.80;99.90
15178;DHT22;7689;53.612;-2.416;2022-11-12T17:09:02;11.90;99.90
15178;DHT22;7689;53.612;-2.416;2022-11-12T17:11:27;11.80;99.90
15178;DHT22;7689;53.612;-2.416;2022-11-12T17:13:53;11.90;99.90
15178;DHT22;7689;53.612;-2.416;2022-11-12T17:16:18;11.90;99.90
15178;DHT22;7689;53.612;-2.416;2022-11-12T17:18:44;11.90;99.90
15178;DHT22;7689;53.612;-2.416;2022-11-12T17:21:12;11.90;99.90
15178;DHT22;7689;53.612;-2.416;2022-11-12T17:23:39;12.00;99.90
15178;DHT22;7689;53.612;-2.416;2022-11-12T17:26:09;12.10;99.90
15178;DHT22;7689;53.612;-2.416;2022-11-12T17:28:35;12.00;99.90
15178;DHT22;7689;53.612;-2.416;2022-11-12T17:31:05;12.00;99.90
15178;DHT22;7689;53.612;-2.416;2022-11-12T17:33:36;12.00;99.90
15178;DHT22;7689;53.612;-2.416;2022-11-12T17:36:04;11.90;99.90
15178;DHT22;7689;53.612;-2.416;2022-11-12T17:38:30;11.90;99.90
15178;DHT22;7689;53.612;-2.416;2022-11-12T17:40:56;11.90;99.90
15178;DHT22;7689;53.612;-2.416;2022-11-12T17:43:23;12.00;99.90
15178;DHT22;7689;53.612;-2.416;2022-11-12T17:45:50;12.10;99.90
15178;DHT22;7689;53.612;-2.416;2022-11-12T17:48:16;12.10;99.90
15178;DHT22;7689;53.612;-2.416;2022-11-12T17:50:41;12.10;99.90
15178;DHT22;7689;53.612;-2.416;2022-11-12T17:53:07;12.10;99.90
15178;DHT22;7689;53.612;-2.416;2022-11-12T17:55:32;12.90;99.90
15178;DHT22;7689;53.612;-2.416;2022-11-12T17:57:59;12.10;99.90
15178;DHT22;7689;53.612;-2.416;2022-11-12T18:00:25;12.10;99.90
15178;DHT22;7689;53.612;-2.416;2022-11-12T18:02:50;12.10;99.90
15178;DHT22;7689;53.612;-2.416;2022-11-12T18:05:16;12.20;99.90
15178;DHT22;7689;53.612;-2.416;2022-11-12T18:07:42;12.20;99.90
15178;DHT22;7689;53.612;-2.416;2022-11-12T18:10:08;12.20;99.90
15178;DHT22;7689;53.612;-2.416;2022-11-12T18:12:33;12.20;99.90
15178;DHT22;7689;53.612;-2.416;2022-11-12T18:14:59;12.30;99.90
15178;DHT22;7689;53.612;-2.416;2022-11-12T18:17:24;12.30;99.90
15178;DHT22;7689;53.612;-2.416;2022-11-12T18:19:50;12.30;99.90
15178;DHT22;7689;53.612;-2.416;2022-11-12T18:22:16;12.30;99.90